West Woodward Airport
KWWR : rendu visible

Aérodrome :











RETROUVEZ-NOUS SUR...

 
LOGIN :

S'inscrire | Disclaimer

   EN    FR    IT 

 









Légende :    VFR   VFR Marginal   IFR   IFR Intensif   IFR Très Intensif
Visi : 
Plafond : 
>= 8 km
>= 3000ft
5 à 8 km
1000 à 3000 ft
1500m à 5 km
500 à 1000 ft
800 à 1500m
200 à 500 ft
< 800m
< 200 ft
Symboles :   Orages  Brouillard  Fortes neiges  Fortes précipitations  Vent > 20 kt






- Altitude de l'aérodrome : 2189 ft


KWWR - West Woodward

DERNIER METAR :
  • 251555Z AUTO 33016KT 10SM BKN013 BKN075 15/12 A2996 RMK AO2

METARs EXPIRÉS :
  • 251535Z AUTO 33018G22KT 10SM BKN075 15/12 A2995 RMK AO2
  • 251515Z AUTO 32016G23KT 10SM OVC075 15/11 A2995 RMK AO2
  • 251455Z AUTO 32017G21KT 10SM OVC075 15/12 A2995 RMK AO2
  • 251435Z AUTO 31013G21KT 10SM BKN012 OVC065 14/11 A2995 RMK AO2
  • 251415Z AUTO 31010G18KT 10SM OVC012 14/12 A2995 RMK AO2
  • 251355Z AUTO 31015G21KT 10SM OVC012 14/12 A2994 RMK AO2
  • 251335Z AUTO 31011G14KT 10SM SCT010 OVC060 14/12 A2994 RMK AO2
  • 251315Z AUTO 31010G14KT 10SM OVC060 13/12 A2992 RMK AO2

TAF KWWR
Valide du 25 à 12h jusqu'au 26 à 12h UTC


251120Z 2512/2612 34010KT P6SM BKN030
FM251900 36013KT P6SM -SHRA OVC040
TEMPO 2520/2524 3SM TSRA OVC025CB
FM260100 35012KT P6SM OVC030
FM260900 31010KT P6SM BKN100
FIR KZKC / Amérique du Nord



MET'MAP, la Météo Aéronautique d'un coup d'oeil ! - Copyright ORBIFLY Décembre 2007 - Disclaimer

ORBIFLY MET'MAP TEAM :

Programmation & Développement : Alexandra Zaïnal
Sur une idée originale de : Baudouin d'Aumeries
Assistance à la programmation : Marc-Olivier Méhu
Soutien technique & logistique : Manuel Goepfert

Contact : metmap@orbifly.com




SOURCES & CREDITS :

   NOAA       Earth
Advisory